sensor_id;sensor_type;location;lat;lon;timestamp;pressure;altitude;pressure_sealevel;temperature;humidity
30744;BME280;17486;46.738;7.622;2023-07-16T00:00:26;95234.75;;;25.65;48.40
30744;BME280;17486;46.738;7.622;2023-07-16T00:02:52;95243.31;;;25.52;48.58
30744;BME280;17486;46.738;7.622;2023-07-16T00:05:17;95248.16;;;25.40;48.74
30744;BME280;17486;46.738;7.622;2023-07-16T00:07:43;95222.97;;;25.10;48.52
30744;BME280;17486;46.738;7.622;2023-07-16T00:10:09;95244.28;;;25.10;48.81
30744;BME280;17486;46.738;7.622;2023-07-16T00:12:34;95245.13;;;25.10;48.69
30744;BME280;17486;46.738;7.622;2023-07-16T00:14:59;95250.78;;;25.24;48.55
30744;BME280;17486;46.738;7.622;2023-07-16T00:17:25;95241.63;;;25.18;48.28
30744;BME280;17486;46.738;7.622;2023-07-16T00:19:50;95240.63;;;25.27;48.17
30744;BME280;17486;46.738;7.622;2023-07-16T00:22:16;95241.13;;;25.23;48.07
30744;BME280;17486;46.738;7.622;2023-07-16T00:24:41;95248.78;;;25.17;47.48
30744;BME280;17486;46.738;7.622;2023-07-16T00:27:06;95250.94;;;25.14;47.59
30744;BME280;17486;46.738;7.622;2023-07-16T00:29:32;95254.75;;;25.03;47.07
30744;BME280;17486;46.738;7.622;2023-07-16T00:31:57;95265.72;;;24.83;47.15
30744;BME280;17486;46.738;7.622;2023-07-16T00:34:22;95258.50;;;24.59;47.89
30744;BME280;17486;46.738;7.622;2023-07-16T00:36:48;95259.47;;;24.50;47.79
30744;BME280;17486;46.738;7.622;2023-07-16T00:39:13;95274.75;;;24.56;48.08
30744;BME280;17486;46.738;7.622;2023-07-16T00:41:39;95267.13;;;24.53;48.19
30744;BME280;17486;46.738;7.622;2023-07-16T00:44:05;95258.16;;;24.46;48.16
30744;BME280;17486;46.738;7.622;2023-07-16T00:46:30;95274.09;;;24.54;48.13
30744;BME280;17486;46.738;7.622;2023-07-16T00:48:56;95267.47;;;24.58;47.71
30744;BME280;17486;46.738;7.622;2023-07-16T00:51:22;95265.16;;;24.55;47.29
30744;BME280;17486;46.738;7.622;2023-07-16T00:53:49;95261.47;;;24.56;47.43
30744;BME280;17486;46.738;7.622;2023-07-16T00:56:16;95267.13;;;24.61;47.25
30744;BME280;17486;46.738;7.622;2023-07-16T00:58:43;95264.13;;;24.56;47.15
30744;BME280;17486;46.738;7.622;2023-07-16T01:01:08;95268.63;;;24.56;47.22
30744;BME280;17486;46.738;7.622;2023-07-16T01:03:33;95280.81;;;24.66;46.95
30744;BME280;17486;46.738;7.622;2023-07-16T01:06:14;95273.50;;;24.69;47.09
30744;BME280;17486;46.738;7.622;2023-07-16T01:08:45;95275.78;;;24.55;46.65
30744;BME280;17486;46.738;7.622;2023-07-16T01:11:12;95266.78;;;24.48;46.80
30744;BME280;17486;46.738;7.622;2023-07-16T01:13:37;95287.75;;;24.59;46.85
30744;BME280;17486;46.738;7.622;2023-07-16T01:16:04;95280.06;;;24.56;47.37
30744;BME280;17486;46.738;7.622;2023-07-16T01:18:29;95285.75;;;24.61;46.81
30744;BME280;17486;46.738;7.622;2023-07-16T01:20:55;95283.81;;;24.63;46.66
30744;BME280;17486;46.738;7.622;2023-07-16T01:23:46;95285.13;;;24.67;46.58
30744;BME280;17486;46.738;7.622;2023-07-16T01:31:43;95287.91;;;24.58;46.25
30744;BME280;17486;46.738;7.622;2023-07-16T01:34:10;95284.75;;;24.62;45.71
30744;BME280;17486;46.738;7.622;2023-07-16T01:36:37;95279.00;;;24.67;45.93
30744;BME280;17486;46.738;7.622;2023-07-16T01:39:03;95261.53;;;24.64;45.79
30744;BME280;17486;46.738;7.622;2023-07-16T01:41:29;95279.47;;;24.71;45.19
30744;BME280;17486;46.738;7.622;2023-07-16T01:43:54;95266.84;;;24.64;44.89
30744;BME280;17486;46.738;7.622;2023-07-16T01:46:20;95278.81;;;24.69;45.33
30744;BME280;17486;46.738;7.622;2023-07-16T01:48:45;95282.00;;;24.72;45.28
30744;BME280;17486;46.738;7.622;2023-07-16T01:51:11;95283.97;;;24.70;44.85
30744;BME280;17486;46.738;7.622;2023-07-16T01:53:39;95287.97;;;24.74;44.92
30744;BME280;17486;46.738;7.622;2023-07-16T01:56:05;95277.78;;;24.61;45.07
30744;BME280;17486;46.738;7.622;2023-07-16T01:58:30;95290.63;;;24.74;44.77
30744;BME280;17486;46.738;7.622;2023-07-16T02:00:56;95280.50;;;24.70;44.83
30744;BME280;17486;46.738;7.622;2023-07-16T02:03:21;95260.00;;;24.62;44.61
30744;BME280;17486;46.738;7.622;2023-07-16T02:05:47;95275.66;;;24.73;44.63
30744;BME280;17486;46.738;7.622;2023-07-16T02:08:13;95279.19;;;24.74;44.56
30744;BME280;17486;46.738;7.622;2023-07-16T02:10:38;95273.69;;;24.75;44.49
30744;BME280;17486;46.738;7.622;2023-07-16T02:13:04;95252.66;;;24.56;44.27
30744;BME280;17486;46.738;7.622;2023-07-16T02:15:29;95278.16;;;24.66;44.46
30744;BME280;17486;46.738;7.622;2023-07-16T02:17:54;95304.38;;;24.61;44.74
30744;BME280;17486;46.738;7.622;2023-07-16T02:20:20;95324.31;;;24.57;45.08
30744;BME280;17486;46.738;7.622;2023-07-16T02:22:45;95316.03;;;24.60;45.65
30744;BME280;17486;46.738;7.622;2023-07-16T02:25:11;95314.63;;;24.48;48.45
30744;BME280;17486;46.738;7.622;2023-07-16T02:27:36;95315.13;;;24.43;48.25
30744;BME280;17486;46.738;7.622;2023-07-16T02:30:01;95302.78;;;24.34;48.87
30744;BME280;17486;46.738;7.622;2023-07-16T02:32:27;95324.19;;;24.32;49.76
30744;BME280;17486;46.738;7.622;2023-07-16T02:34:52;95304.59;;;24.25;50.27
30744;BME280;17486;46.738;7.622;2023-07-16T02:37:18;95302.91;;;24.24;50.45
30744;BME280;17486;46.738;7.622;2023-07-16T02:39:44;95323.34;;;24.24;50.95
30744;BME280;17486;46.738;7.622;2023-07-16T02:42:11;95318.84;;;24.24;50.40
30744;BME280;17486;46.738;7.622;2023-07-16T02:44:37;95328.97;;;24.21;51.14
30744;BME280;17486;46.738;7.622;2023-07-16T02:47:07;95328.97;;;24.21;51.14
30744;BME280;17486;46.738;7.622;2023-07-16T02:49:32;95322.31;;;24.16;51.60
30744;BME280;17486;46.738;7.622;2023-07-16T02:51:58;95311.47;;;24.10;50.94
30744;BME280;17486;46.738;7.622;2023-07-16T02:54:23;95310.13;;;24.06;51.48
30744;BME280;17486;46.738;7.622;2023-07-16T02:56:48;95312.44;;;24.00;52.15
30744;BME280;17486;46.738;7.622;2023-07-16T02:59:14;95332.53;;;24.03;52.77
30744;BME280;17486;46.738;7.622;2023-07-16T03:01:39;95331.00;;;23.92;52.77
30744;BME280;17486;46.738;7.622;2023-07-16T03:04:04;95336.13;;;23.94;52.96
30744;BME280;17486;46.738;7.622;2023-07-16T03:06:30;95309.25;;;23.79;52.95
30744;BME280;17486;46.738;7.622;2023-07-16T03:08:55;95329.56;;;23.88;53.28
30744;BME280;17486;46.738;7.622;2023-07-16T03:11:21;95330.88;;;23.84;53.44
30744;BME280;17486;46.738;7.622;2023-07-16T03:13:47;95333.16;;;23.79;53.00
30744;BME280;17486;46.738;7.622;2023-07-16T03:16:12;95322.81;;;23.67;52.99
30744;BME280;17486;46.738;7.622;2023-07-16T03:18:38;95327.81;;;23.71;53.71
30744;BME280;17486;46.738;7.622;2023-07-16T03:21:03;95318.13;;;23.61;53.43
30744;BME280;17486;46.738;7.622;2023-07-16T03:23:28;95333.44;;;23.67;53.51
30744;BME280;17486;46.738;7.622;2023-07-16T03:25:54;95341.56;;;23.66;53.97
30744;BME280;17486;46.738;7.622;2023-07-16T03:28:19;95339.91;;;23.65;53.56
30744;BME280;17486;46.738;7.622;2023-07-16T03:30:49;95341.19;;;23.61;53.49
30744;BME280;17486;46.738;7.622;2023-07-16T03:33:15;95341.31;;;23.59;53.55
30744;BME280;17486;46.738;7.622;2023-07-16T03:35:44;95339.16;;;23.55;53.79
30744;BME280;17486;46.738;7.622;2023-07-16T03:38:13;95340.28;;;23.52;53.97
30744;BME280;17486;46.738;7.622;2023-07-16T03:40:39;95343.28;;;23.49;54.25
30744;BME280;17486;46.738;7.622;2023-07-16T03:43:04;95347.50;;;23.42;54.35
30744;BME280;17486;46.738;7.622;2023-07-16T03:45:30;95334.94;;;23.26;54.28
30744;BME280;17486;46.738;7.622;2023-07-16T03:47:55;95316.59;;;23.14;54.58
30744;BME280;17486;46.738;7.622;2023-07-16T03:50:21;95352.75;;;23.33;54.57
30744;BME280;17486;46.738;7.622;2023-07-16T03:52:46;95366.84;;;23.34;54.67
30744;BME280;17486;46.738;7.622;2023-07-16T03:55:12;95373.00;;;23.34;54.20
30744;BME280;17486;46.738;7.622;2023-07-16T03:57:37;95368.16;;;23.30;54.14
30744;BME280;17486;46.738;7.622;2023-07-16T04:00:04;95375.66;;;23.34;54.08
30744;BME280;17486;46.738;7.622;2023-07-16T04:02:32;95370.94;;;23.28;54.29
30744;BME280;17486;46.738;7.622;2023-07-16T04:04:57;95379.97;;;23.35;54.03
30744;BME280;17486;46.738;7.622;2023-07-16T04:07:22;95372.53;;;23.21;53.91
30744;BME280;17486;46.738;7.622;2023-07-16T04:09:48;95372.84;;;23.18;53.83
30744;BME280;17486;46.738;7.622;2023-07-16T04:12:14;95365.22;;;23.05;54.10
30744;BME280;17486;46.738;7.622;2023-07-16T04:14:39;95346.22;;;22.82;54.21
30744;BME280;17486;46.738;7.622;2023-07-16T04:17:05;95380.50;;;22.93;54.38
30744;BME280;17486;46.738;7.622;2023-07-16T04:19:30;95383.88;;;22.95;54.58
30744;BME280;17486;46.738;7.622;2023-07-16T04:21:56;95377.88;;;22.93;54.86
30744;BME280;17486;46.738;7.622;2023-07-16T04:24:21;95377.94;;;23.01;54.81
30744;BME280;17486;46.738;7.622;2023-07-16T04:26:47;95371.66;;;23.02;54.79
30744;BME280;17486;46.738;7.622;2023-07-16T04:29:12;95350.78;;;22.90;54.50
30744;BME280;17486;46.738;7.622;2023-07-16T04:31:37;95384.25;;;23.00;54.69
30744;BME280;17486;46.738;7.622;2023-07-16T04:34:03;95391.19;;;23.01;54.78
30744;BME280;17486;46.738;7.622;2023-07-16T04:36:28;95373.50;;;23.02;54.80
30744;BME280;17486;46.738;7.622;2023-07-16T04:38:53;95352.16;;;22.94;54.83
30744;BME280;17486;46.738;7.622;2023-07-16T04:41:19;95360.97;;;22.94;54.81
30744;BME280;17486;46.738;7.622;2023-07-16T04:43:44;95359.72;;;22.89;54.61
30744;BME280;17486;46.738;7.622;2023-07-16T04:46:10;95378.44;;;22.87;54.45
30744;BME280;17486;46.738;7.622;2023-07-16T04:48:37;95374.00;;;22.88;54.71
30744;BME280;17486;46.738;7.622;2023-07-16T04:51:02;95373.16;;;22.87;54.73
30744;BME280;17486;46.738;7.622;2023-07-16T04:53:28;95374.97;;;22.87;54.63
30744;BME280;17486;46.738;7.622;2023-07-16T04:55:53;95381.81;;;22.89;54.58
30744;BME280;17486;46.738;7.622;2023-07-16T04:58:18;95377.63;;;22.87;54.80
30744;BME280;17486;46.738;7.622;2023-07-16T05:00:44;95377.16;;;22.91;54.89
30744;BME280;17486;46.738;7.622;2023-07-16T05:03:09;95374.81;;;22.88;54.58
30744;BME280;17486;46.738;7.622;2023-07-16T05:05:35;95360.34;;;22.82;54.91
30744;BME280;17486;46.738;7.622;2023-07-16T05:08:00;95371.56;;;22.94;55.02
30744;BME280;17486;46.738;7.622;2023-07-16T05:10:27;95373.69;;;22.91;55.26
30744;BME280;17486;46.738;7.622;2023-07-16T05:12:53;95366.47;;;22.83;55.58
30744;BME280;17486;46.738;7.622;2023-07-16T05:15:18;95353.72;;;22.68;56.02
30744;BME280;17486;46.738;7.622;2023-07-16T05:17:44;95361.53;;;22.70;55.86
30744;BME280;17486;46.738;7.622;2023-07-16T05:20:09;95374.75;;;22.80;55.91
30744;BME280;17486;46.738;7.622;2023-07-16T05:22:35;95387.53;;;22.84;55.73
30744;BME280;17486;46.738;7.622;2023-07-16T05:25:01;95387.53;;;22.84;55.87
30744;BME280;17486;46.738;7.622;2023-07-16T05:27:27;95384.38;;;22.81;56.21
30744;BME280;17486;46.738;7.622;2023-07-16T05:29:53;95375.72;;;22.79;56.14
30744;BME280;17486;46.738;7.622;2023-07-16T05:32:18;95381.66;;;22.91;56.22
30744;BME280;17486;46.738;7.622;2023-07-16T05:34:43;95380.81;;;22.90;56.09
30744;BME280;17486;46.738;7.622;2023-07-16T05:37:09;95365.88;;;22.89;56.04
30744;BME280;17486;46.738;7.622;2023-07-16T05:39:34;95366.44;;;22.93;56.18
30744;BME280;17486;46.738;7.622;2023-07-16T05:41:59;95362.78;;;22.94;56.24
30744;BME280;17486;46.738;7.622;2023-07-16T05:44:27;95356.25;;;22.88;56.31
30744;BME280;17486;46.738;7.622;2023-07-16T05:46:53;95367.16;;;22.85;56.29
30744;BME280;17486;46.738;7.622;2023-07-16T05:49:18;95371.78;;;22.83;56.40
30744;BME280;17486;46.738;7.622;2023-07-16T05:51:43;95367.16;;;22.85;56.22
30744;BME280;17486;46.738;7.622;2023-07-16T05:54:09;95365.66;;;22.82;55.88
30744;BME280;17486;46.738;7.622;2023-07-16T05:56:34;95363.91;;;22.73;56.24
30744;BME280;17486;46.738;7.622;2023-07-16T05:58:59;95362.66;;;22.67;56.41
30744;BME280;17486;46.738;7.622;2023-07-16T06:01:25;95360.16;;;22.66;56.38
30744;BME280;17486;46.738;7.622;2023-07-16T06:03:50;95367.03;;;22.59;56.65
30744;BME280;17486;46.738;7.622;2023-07-16T06:06:15;95370.56;;;22.49;56.34
30744;BME280;17486;46.738;7.622;2023-07-16T06:08:41;95369.88;;;22.47;56.78
30744;BME280;17486;46.738;7.622;2023-07-16T06:11:06;95378.22;;;22.52;56.60
30744;BME280;17486;46.738;7.622;2023-07-16T06:13:32;95379.91;;;22.54;56.78
30744;BME280;17486;46.738;7.622;2023-07-16T06:15:57;95391.53;;;22.71;56.29
30744;BME280;17486;46.738;7.622;2023-07-16T06:18:22;95383.44;;;22.72;56.24
30744;BME280;17486;46.738;7.622;2023-07-16T06:20:48;95398.03;;;22.86;55.71
30744;BME280;17486;46.738;7.622;2023-07-16T06:23:14;95406.34;;;22.91;55.42
30744;BME280;17486;46.738;7.622;2023-07-16T06:25:41;95381.09;;;22.87;54.74
30744;BME280;17486;46.738;7.622;2023-07-16T06:28:09;95389.91;;;23.06;54.50
30744;BME280;17486;46.738;7.622;2023-07-16T06:30:35;95374.22;;;22.94;54.31
30744;BME280;17486;46.738;7.622;2023-07-16T06:33:00;95367.16;;;22.85;54.48
30744;BME280;17486;46.738;7.622;2023-07-16T06:35:26;95354.19;;;22.82;54.87
30744;BME280;17486;46.738;7.622;2023-07-16T06:37:51;95339.56;;;22.78;55.62
30744;BME280;17486;46.738;7.622;2023-07-16T06:40:17;95365.34;;;22.85;55.52
30744;BME280;17486;46.738;7.622;2023-07-16T06:42:42;95368.16;;;22.84;55.44
30744;BME280;17486;46.738;7.622;2023-07-16T06:45:08;95353.22;;;22.83;55.37
30744;BME280;17486;46.738;7.622;2023-07-16T06:47:33;95364.91;;;22.90;55.70
30744;BME280;17486;46.738;7.622;2023-07-16T06:49:59;95361.25;;;22.91;55.65
30744;BME280;17486;46.738;7.622;2023-07-16T06:52:24;95358.91;;;22.88;55.61
30744;BME280;17486;46.738;7.622;2023-07-16T06:54:55;95336.00;;;22.87;55.38
30744;BME280;17486;46.738;7.622;2023-07-16T06:57:22;95345.66;;;22.88;55.74
30744;BME280;17486;46.738;7.622;2023-07-16T06:59:48;95350.75;;;22.99;55.78
30744;BME280;17486;46.738;7.622;2023-07-16T07:02:13;95359.59;;;23.08;55.61
30744;BME280;17486;46.738;7.622;2023-07-16T07:04:39;95355.25;;;23.17;55.46
30744;BME280;17486;46.738;7.622;2023-07-16T07:07:04;95357.53;;;23.30;55.62
30744;BME280;17486;46.738;7.622;2023-07-16T07:09:30;95358.56;;;23.37;55.41
30744;BME280;17486;46.738;7.622;2023-07-16T07:11:55;95368.44;;;23.45;55.47
30744;BME280;17486;46.738;7.622;2023-07-16T07:14:20;95361.69;;;23.50;55.52
30744;BME280;17486;46.738;7.622;2023-07-16T07:16:46;95348.25;;;23.52;55.50
30744;BME280;17486;46.738;7.622;2023-07-16T07:19:11;95356.13;;;23.62;55.73
30744;BME280;17486;46.738;7.622;2023-07-16T07:21:37;95360.81;;;23.68;55.63
30744;BME280;17486;46.738;7.622;2023-07-16T07:24:02;95381.47;;;23.74;55.73
30744;BME280;17486;46.738;7.622;2023-07-16T07:26:28;95390.94;;;23.77;55.13
30744;BME280;17486;46.738;7.622;2023-07-16T07:28:53;95395.94;;;23.80;55.34
30744;BME280;17486;46.738;7.622;2023-07-16T07:31:18;95389.97;;;23.78;54.75
30744;BME280;17486;46.738;7.622;2023-07-16T07:33:44;95378.63;;;23.76;53.90
30744;BME280;17486;46.738;7.622;2023-07-16T07:36:09;95332.59;;;23.67;54.12
30744;BME280;17486;46.738;7.622;2023-07-16T07:38:35;95335.69;;;23.80;54.05
30744;BME280;17486;46.738;7.622;2023-07-16T07:41:01;95340.09;;;23.72;53.58
30744;BME280;17486;46.738;7.622;2023-07-16T07:43:26;95360.38;;;23.73;53.36
30744;BME280;17486;46.738;7.622;2023-07-16T07:45:52;95363.03;;;23.73;53.43
30744;BME280;17486;46.738;7.622;2023-07-16T07:48:17;95354.75;;;23.76;53.87
30744;BME280;17486;46.738;7.622;2023-07-16T07:50:42;95350.94;;;23.78;53.28
30744;BME280;17486;46.738;7.622;2023-07-16T07:53:08;95371.81;;;23.91;52.79
30744;BME280;17486;46.738;7.622;2023-07-16T07:55:34;95378.38;;;24.05;51.92
30744;BME280;17486;46.738;7.622;2023-07-16T07:58:00;95377.75;;;24.11;51.99
30744;BME280;17486;46.738;7.622;2023-07-16T08:00:26;95365.16;;;24.13;51.76
30744;BME280;17486;46.738;7.622;2023-07-16T08:02:51;95348.25;;;24.23;51.60
30744;BME280;17486;46.738;7.622;2023-07-16T08:05:16;95347.31;;;24.32;51.68
30744;BME280;17486;46.738;7.622;2023-07-16T08:07:42;95354.84;;;24.45;51.49
30744;BME280;17486;46.738;7.622;2023-07-16T08:10:07;95339.94;;;24.60;50.61
30744;BME280;17486;46.738;7.622;2023-07-16T08:12:33;95350.66;;;24.77;49.54
30744;BME280;17486;46.738;7.622;2023-07-16T08:14:58;95339.03;;;24.78;49.16
30744;BME280;17486;46.738;7.622;2023-07-16T08:17:23;95346.84;;;24.88;49.34
30744;BME280;17486;46.738;7.622;2023-07-16T08:19:49;95349.75;;;25.03;48.95
30744;BME280;17486;46.738;7.622;2023-07-16T08:22:14;95327.47;;;25.04;48.58
30744;BME280;17486;46.738;7.622;2023-07-16T08:24:40;95346.28;;;25.19;47.57
30744;BME280;17486;46.738;7.622;2023-07-16T08:27:05;95354.59;;;25.24;47.57
30744;BME280;17486;46.738;7.622;2023-07-16T08:29:30;95356.56;;;25.22;47.89
30744;BME280;17486;46.738;7.622;2023-07-16T08:31:56;95349.75;;;25.19;48.18
30744;BME280;17486;46.738;7.622;2023-07-16T08:34:21;95363.75;;;25.21;47.47
30744;BME280;17486;46.738;7.622;2023-07-16T08:36:46;95336.78;;;25.08;47.80
30744;BME280;17486;46.738;7.622;2023-07-16T08:39:12;95370.56;;;25.15;47.42
30744;BME280;17486;46.738;7.622;2023-07-16T08:41:39;95367.72;;;25.17;47.52
30744;BME280;17486;46.738;7.622;2023-07-16T08:44:04;95377.56;;;25.25;47.06
30744;BME280;17486;46.738;7.622;2023-07-16T08:46:31;95359.75;;;25.17;46.26
30744;BME280;17486;46.738;7.622;2023-07-16T08:48:56;95352.28;;;25.21;46.34
30744;BME280;17486;46.738;7.622;2023-07-16T08:51:23;95372.06;;;25.26;46.28
30744;BME280;17486;46.738;7.622;2023-07-16T08:53:48;95369.56;;;25.25;46.23
30744;BME280;17486;46.738;7.622;2023-07-16T08:56:14;95368.59;;;25.26;46.45
30744;BME280;17486;46.738;7.622;2023-07-16T08:58:42;95366.91;;;25.25;46.05
30744;BME280;17486;46.738;7.622;2023-07-16T09:01:08;95360.75;;;25.24;45.91
30744;BME280;17486;46.738;7.622;2023-07-16T09:03:35;95361.41;;;25.26;46.09
30744;BME280;17486;46.738;7.622;2023-07-16T09:06:02;95359.09;;;25.23;46.12
30744;BME280;17486;46.738;7.622;2023-07-16T09:08:28;95358.75;;;25.26;45.52
30744;BME280;17486;46.738;7.622;2023-07-16T09:10:55;95370.41;;;25.25;45.12
30744;BME280;17486;46.738;7.622;2023-07-16T09:13:22;95365.72;;;25.19;45.07
30744;BME280;17486;46.738;7.622;2023-07-16T09:15:52;95357.25;;;25.15;44.99
30744;BME280;17486;46.738;7.622;2023-07-16T09:18:25;95378.38;;;25.25;45.56
30744;BME280;17486;46.738;7.622;2023-07-16T09:21:00;95368.72;;;25.24;45.33
30744;BME280;17486;46.738;7.622;2023-07-16T09:23:29;95377.25;;;25.36;45.04
30744;BME280;17486;46.738;7.622;2023-07-16T09:25:55;95383.44;;;25.45;45.28
30744;BME280;17486;46.738;7.622;2023-07-16T09:28:21;95377.75;;;25.48;44.38
30744;BME280;17486;46.738;7.622;2023-07-16T09:30:47;95378.59;;;25.57;44.57
30744;BME280;17486;46.738;7.622;2023-07-16T09:33:21;95370.97;;;25.54;44.68
30744;BME280;17486;46.738;7.622;2023-07-16T09:35:49;95379.47;;;25.65;44.44
30744;BME280;17486;46.738;7.622;2023-07-16T09:38:15;95373.78;;;25.69;44.53
30744;BME280;17486;46.738;7.622;2023-07-16T09:40:41;95362.97;;;25.62;44.38
30744;BME280;17486;46.738;7.622;2023-07-16T09:43:10;95374.13;;;25.74;45.00
30744;BME280;17486;46.738;7.622;2023-07-16T09:45:36;95379.78;;;25.79;44.78
30744;BME280;17486;46.738;7.622;2023-07-16T09:48:03;95377.28;;;25.86;44.49
30744;BME280;17486;46.738;7.622;2023-07-16T09:50:30;95366.44;;;25.87;44.24
30744;BME280;17486;46.738;7.622;2023-07-16T09:52:57;95373.09;;;25.99;44.19
30744;BME280;17486;46.738;7.622;2023-07-16T09:55:23;95355.63;;;26.05;43.56
30744;BME280;17486;46.738;7.622;2023-07-16T09:57:51;95374.91;;;26.24;43.66
30744;BME280;17486;46.738;7.622;2023-07-16T10:00:18;95356.91;;;26.26;43.05
30744;BME280;17486;46.738;7.622;2023-07-16T10:02:46;95370.19;;;26.42;42.97
30744;BME280;17486;46.738;7.622;2023-07-16T10:05:16;95370.81;;;26.53;42.70
30744;BME280;17486;46.738;7.622;2023-07-16T10:07:42;95375.78;;;26.64;42.00
30744;BME280;17486;46.738;7.622;2023-07-16T10:10:09;95376.63;;;26.73;42.16
30744;BME280;17486;46.738;7.622;2023-07-16T10:12:35;95366.28;;;26.78;42.04
30744;BME280;17486;46.738;7.622;2023-07-16T10:15:01;95374.22;;;26.86;41.96
30744;BME280;17486;46.738;7.622;2023-07-16T10:17:30;95370.19;;;26.90;41.55
30744;BME280;17486;46.738;7.622;2023-07-16T10:20:10;95370.19;;;26.90;41.44
30744;BME280;17486;46.738;7.622;2023-07-16T10:22:39;95365.84;;;26.97;41.39
30744;BME280;17486;46.738;7.622;2023-07-16T10:25:10;95379.50;;;27.03;41.82
30744;BME280;17486;46.738;7.622;2023-07-16T10:27:36;95359.44;;;27.07;41.18
30744;BME280;17486;46.738;7.622;2023-07-16T10:30:03;95369.38;;;27.21;40.28
30744;BME280;17486;46.738;7.622;2023-07-16T10:32:31;95370.13;;;27.30;39.74
30744;BME280;17486;46.738;7.622;2023-07-16T10:34:57;95367.56;;;27.37;39.10
30744;BME280;17486;46.738;7.622;2023-07-16T10:37:22;95351.53;;;27.37;39.25
30744;BME280;17486;46.738;7.622;2023-07-16T10:39:50;95365.31;;;27.57;39.58
30744;BME280;17486;46.738;7.622;2023-07-16T10:42:16;95368.75;;;27.66;39.62
30744;BME280;17486;46.738;7.622;2023-07-16T10:44:42;95360.06;;;27.63;39.51
30744;BME280;17486;46.738;7.622;2023-07-16T10:47:09;95371.25;;;27.67;39.13
30744;BME280;17486;46.738;7.622;2023-07-16T10:49:35;95353.06;;;27.62;39.60
30744;BME280;17486;46.738;7.622;2023-07-16T10:52:01;95362.38;;;27.67;39.14
30744;BME280;17486;46.738;7.622;2023-07-16T10:54:27;95366.06;;;27.66;39.42
30744;BME280;17486;46.738;7.622;2023-07-16T10:56:52;95346.28;;;27.28;39.12
30744;BME280;17486;46.738;7.622;2023-07-16T10:59:18;95360.59;;;27.36;39.68
30744;BME280;17486;46.738;7.622;2023-07-16T11:01:43;95353.59;;;27.35;40.25
30744;BME280;17486;46.738;7.622;2023-07-16T11:04:09;95360.66;;;27.51;40.39
30744;BME280;17486;46.738;7.622;2023-07-16T11:06:35;95351.22;;;27.63;39.80
30744;BME280;17486;46.738;7.622;2023-07-16T11:09:08;95351.78;;;27.73;40.11
30744;BME280;17486;46.738;7.622;2023-07-16T11:11:34;95353.22;;;27.84;40.48
30744;BME280;17486;46.738;7.622;2023-07-16T11:13:59;95359.59;;;27.98;40.67
30744;BME280;17486;46.738;7.622;2023-07-16T11:16:25;95353.03;;;28.09;40.41
30744;BME280;17486;46.738;7.622;2023-07-16T11:18:51;95355.41;;;28.04;40.03
30744;BME280;17486;46.738;7.622;2023-07-16T11:21:19;95353.38;;;28.06;40.37
30744;BME280;17486;46.738;7.622;2023-07-16T11:23:45;95347.19;;;28.05;40.14
30744;BME280;17486;46.738;7.622;2023-07-16T11:26:10;95355.41;;;28.04;39.81
30744;BME280;17486;46.738;7.622;2023-07-16T11:28:40;95342.91;;;27.96;40.05
30744;BME280;17486;46.738;7.622;2023-07-16T11:31:14;95355.56;;;28.02;40.39
30744;BME280;17486;46.738;7.622;2023-07-16T11:33:46;95349.09;;;27.96;40.38
30744;BME280;17486;46.738;7.622;2023-07-16T11:36:12;95356.22;;;28.04;39.99
30744;BME280;17486;46.738;7.622;2023-07-16T11:38:38;95356.50;;;28.09;40.22
30744;BME280;17486;46.738;7.622;2023-07-16T11:41:04;95344.72;;;28.19;39.74
30744;BME280;17486;46.738;7.622;2023-07-16T11:43:40;95345.38;;;28.36;40.62
30744;BME280;17486;46.738;7.622;2023-07-16T11:46:15;95346.19;;;28.51;40.11
30744;BME280;17486;46.738;7.622;2023-07-16T11:48:41;95343.06;;;28.62;39.82
30744;BME280;17486;46.738;7.622;2023-07-16T11:51:06;95344.00;;;28.70;39.73
30744;BME280;17486;46.738;7.622;2023-07-16T11:53:32;95355.34;;;28.72;39.27
30744;BME280;17486;46.738;7.622;2023-07-16T11:55:57;95335.03;;;28.62;39.18
30744;BME280;17486;46.738;7.622;2023-07-16T11:58:22;95341.97;;;28.72;39.13
30744;BME280;17486;46.738;7.622;2023-07-16T12:00:48;95343.16;;;28.69;39.19
30744;BME280;17486;46.738;7.622;2023-07-16T12:03:13;95344.00;;;28.70;39.34
30744;BME280;17486;46.738;7.622;2023-07-16T12:05:38;95351.38;;;28.68;39.43
30744;BME280;17486;46.738;7.622;2023-07-16T12:08:04;95343.34;;;28.68;39.14
30744;BME280;17486;46.738;7.622;2023-07-16T12:10:29;95332.00;;;28.66;39.51
30744;BME280;17486;46.738;7.622;2023-07-16T12:12:55;95343.78;;;28.71;39.30
30744;BME280;17486;46.738;7.622;2023-07-16T12:15:20;95343.78;;;28.86;39.75
30744;BME280;17486;46.738;7.622;2023-07-16T12:17:46;95334.13;;;29.07;39.22
30744;BME280;17486;46.738;7.622;2023-07-16T12:20:11;95320.97;;;29.27;38.97
30744;BME280;17486;46.738;7.622;2023-07-16T12:22:36;95327.53;;;29.46;38.69
30744;BME280;17486;46.738;7.622;2023-07-16T12:25:02;95322.81;;;29.48;38.41
30744;BME280;17486;46.738;7.622;2023-07-16T12:27:27;95313.56;;;29.51;37.92
30744;BME280;17486;46.738;7.622;2023-07-16T12:29:53;95299.47;;;29.42;38.47
30744;BME280;17486;46.738;7.622;2023-07-16T12:32:18;95289.44;;;29.29;38.55
30744;BME280;17486;46.738;7.622;2023-07-16T12:34:45;95296.53;;;29.37;38.41
30744;BME280;17486;46.738;7.622;2023-07-16T12:37:10;95309.03;;;29.51;39.13
30744;BME280;17486;46.738;7.622;2023-07-16T12:39:36;95304.16;;;29.61;38.22
30744;BME280;17486;46.738;7.622;2023-07-16T12:42:01;95287.56;;;29.73;38.60
30744;BME280;17486;46.738;7.622;2023-07-16T12:44:29;95283.63;;;29.69;37.78
30744;BME280;17486;46.738;7.622;2023-07-16T12:46:54;95287.59;;;29.80;38.21
30744;BME280;17486;46.738;7.622;2023-07-16T12:49:19;95274.75;;;29.97;37.38
30744;BME280;17486;46.738;7.622;2023-07-16T12:51:45;95279.78;;;30.13;37.07
30744;BME280;17486;46.738;7.622;2023-07-16T12:54:10;95284.06;;;30.36;37.13
30744;BME280;17486;46.738;7.622;2023-07-16T12:56:36;95267.84;;;30.51;36.16
30744;BME280;17486;46.738;7.622;2023-07-16T12:59:01;95272.84;;;30.61;36.03